Terminal Aerodrome Forecast
Issued by NWS

Home | Current Version | Previous Version | Text Only | Print | Product List | Glossary On
Versions: 1 2 3 4 5 6 7 8 9 10 11 12 13
667
FTUS42 KTBW 241127
TAFPGD
TAF
KPGD 241127Z 2412/2512 32004KT P6SM SKC
     FM241500 30011KT P6SM SKC
     FM250000 VRB03KT P6SM FEW250
     FM250900 VRB03KT 3SM BR FEW010 FEW250=

USA.gov is the U.S. government's official web portal to all federal, state and local government web resources and services.